Beverly Hills, CA (90210)

3:42 AM PDT on October 01, 2016 (GMT -0700)
Laurel Canyon | | Change Station

Elev 1069 ft 34.11 °N, 118.38 °W | Updated 10 minutes ago

Clear
Clear
64.3 °F
Feels Like 64.3 °F
N
0.0
Wind Variable Wind from ESE

Today
High -- | Low -- °F
--% Chance of Precip.
Yesterday
High -- | Low -- °F
Precip. -- in
Pressure 29.98 in
Visibility 10.0 miles
Clouds Clear
Dew Point 58 °F
Humidity 80%
Rainfall 0.00 in
Snow Depth Not available.
6:48 AM 6:37 PM
New Moon, 0% visible
METAR KSMO 010951Z AUTO 00000KT 10SM CLR 18/16 A2998 RMK AO2 SLP150 T01830161
Pressure 29.98 in
Visibility 10.0 miles
Clouds Clear
Dew Point 58 °F
Humidity 80%
Rainfall 0.00 in
Snow Depth Not available.
6:48 AM 6:37 PM
New Moon, 0% visible
METAR KSMO 010951Z AUTO 00000KT 10SM CLR 18/16 A2998 RMK AO2 SLP150 T01830161

10-Day Weather Forecast

Almanac

Astronomy

Oct. 01, 2016 Rise Set
Actual Time
Civil Twilight
Nautical Twilight
Astronomical Twilight
Moon
Length of Visible Light
Length of Day
Tomorrow will be .
, % of the Moon is Illuminated

Today's Extremes

State Highs State Lows

Community

WunderPhotos

Upload Photos

1,942,908 photos uploaded!

WunderBlog® & News

Nearby

Air Quality

  Air Quality AQ Index Pollutant
Not available.

Snow Depth

Station Depth Elevation

Earthquake Activity

City Distance Mag. Time & Date
Minimum magnitude displayed is 2.5.

Coastal Water Temperatures

Place Temperature

Stations

Nearby Weather Stations

Station Location Temp. Windchill Dew Point Humidity Wind Precip. Elev Updated Type
                   

Watches & Warnings

There are currently no watches in effect.